Terminal Aerodrome Forecast
Issued by NWS

Home | Current Version | Previous Version | Text Only | Print | Product List | Glossary On
Versions: 1 2 3 4 5 6 7 8 9 10 11 12 13 14 15 16 17 18 19 20 21 22 23 24 25 26 27 28
747
FTUS43 KSGF 281120
TAFBBG
TAF
KBBG 281120Z 2812/2912 VRB03KT P6SM BKN250
     FM281600 19009KT P6SM SCT025
     FM281800 21010G15KT P6SM SCT035
     FM290000 VRB04KT P6SM SKC=

USA.gov is the U.S. government's official web portal to all federal, state and local government web resources and services.